Time;durP1;ratioP1;P1;durP2;ratioP2;P2;SDS_P1;SDS_P2;PMS_P1;PMS_P2;Temp;Humidity;BMP_temperature;BMP_pressure;BME280_temperature;BME280_humidity;BME280_pressure;Samples;Min_cycle;Max_cycle;Signal;HPM_P1;HPM_P2
2022/02/24 00:00:55;;;;;;;8.30;3.27;;;4.60;99.90;;;;;;5049005;28;20222;-74
2022/02/24 00:03:23;;;;;;;11.03;2.97;;;4.60;99.90;;;;;;5052910;28;20226;-74
2022/02/24 00:05:51;;;;;;;9.43;3.17;;;4.60;99.90;;;;;;5052065;28;20276;-72
2022/02/24 00:08:18;;;;;;;8.37;2.80;;;4.50;99.90;;;;;;5039520;28;20289;-73
2022/02/24 00:10:45;;;;;;;13.67;4.27;;;4.50;99.90;;;;;;5047600;28;20293;-73
2022/02/24 00:13:13;;;;;;;9.87;3.10;;;4.50;99.90;;;;;;5054253;28;20241;-73
2022/02/24 00:15:40;;;;;;;15.17;5.50;;;4.50;99.90;;;;;;5056605;28;20577;-74
2022/02/24 00:18:07;;;;;;;14.07;4.20;;;4.50;99.90;;;;;;5059429;28;20229;-73
2022/02/24 00:20:34;;;;;;;11.13;3.80;;;4.40;99.90;;;;;;5058435;28;20428;-73
2022/02/24 00:23:02;;;;;;;13.13;4.37;;;4.40;99.90;;;;;;5055762;28;20214;-73
2022/02/24 00:25:29;;;;;;;12.93;4.63;;;4.30;99.90;;;;;;5055673;28;20241;-72
2022/02/24 00:27:56;;;;;;;12.10;3.87;;;4.30;99.90;;;;;;5044001;28;20220;-73
2022/02/24 00:30:22;;;;;;;14.10;4.67;;;4.20;99.90;;;;;;5063132;28;20299;-73
2022/02/24 00:32:49;;;;;;;13.60;4.23;;;4.20;99.90;;;;;;5065301;28;20228;-73
2022/02/24 00:35:16;;;;;;;18.20;4.23;;;4.20;99.90;;;;;;5055662;28;20300;-73
2022/02/24 00:37:43;;;;;;;9.67;3.90;;;4.20;99.90;;;;;;5055389;28;20244;-73
2022/02/24 00:40:13;;;;;;;15.17;3.90;;;4.10;99.90;;;;;;5055081;28;20332;-73
2022/02/24 00:42:40;;;;;;;11.40;4.80;;;4.10;99.90;;;;;;5055938;28;20198;-72
2022/02/24 00:45:07;;;;;;;16.60;5.27;;;4.00;99.90;;;;;;5055285;28;20306;-72
2022/02/24 00:47:34;;;;;;;13.17;4.17;;;4.00;99.90;;;;;;5051252;28;20206;-72
2022/02/24 00:50:01;;;;;;;13.80;5.20;;;4.00;99.90;;;;;;5060428;28;20212;-73
2022/02/24 00:52:28;;;;;;;14.33;5.80;;;4.00;99.90;;;;;;5050372;28;20229;-73
2022/02/24 00:54:55;;;;;;;15.63;6.10;;;3.90;99.90;;;;;;5050332;28;20587;-73
2022/02/24 00:57:23;;;;;;;13.60;5.23;;;3.90;99.90;;;;;;5055107;28;20583;-72
2022/02/24 00:59:51;;;;;;;22.40;6.93;;;3.90;99.90;;;;;;5054600;28;20230;-72
2022/02/24 01:02:18;;;;;;;16.40;6.17;;;3.80;99.90;;;;;;5054750;28;20230;-72
2022/02/24 01:04:45;;;;;;;20.90;6.93;;;3.80;99.90;;;;;;5045665;28;20305;-72
2022/02/24 01:07:12;;;;;;;18.07;6.87;;;3.80;99.90;;;;;;5055540;28;20216;-72
2022/02/24 01:09:39;;;;;;;16.40;6.40;;;3.70;99.90;;;;;;5053620;28;20201;-71
2022/02/24 01:12:07;;;;;;;20.27;6.63;;;3.80;99.90;;;;;;5054701;28;20659;-72
2022/02/24 01:14:36;;;;;;;12.07;6.47;;;3.70;99.90;;;;;;5057212;28;20298;-72
2022/02/24 01:17:03;;;;;;;17.37;6.40;;;3.70;99.90;;;;;;5053492;28;20202;-73
2022/02/24 01:19:30;;;;;;;17.77;7.03;;;3.60;99.90;;;;;;5054744;28;20216;-72
2022/02/24 01:21:56;;;;;;;19.23;7.20;;;3.60;99.90;;;;;;5051592;28;20329;-73
2022/02/24 01:24:23;;;;;;;17.03;7.40;;;3.50;99.90;;;;;;5039080;28;20309;-72
2022/02/24 01:26:50;;;;;;;17.70;7.97;;;3.50;99.90;;;;;;5053268;28;20219;-72
2022/02/24 01:29:17;;;;;;;18.30;7.27;;;3.40;99.90;;;;;;5049988;28;20278;-71
2022/02/24 01:31:45;;;;;;;18.40;7.20;;;3.40;99.90;;;;;;5066338;28;20291;-73
2022/02/24 01:34:12;;;;;;;13.73;6.17;;;3.30;99.90;;;;;;5068727;28;20224;-72
2022/02/24 01:36:39;;;;;;;15.67;6.27;;;3.30;99.90;;;;;;5053944;28;20259;-72
2022/02/24 01:39:06;;;;;;;15.40;6.20;;;3.30;99.90;;;;;;5058725;28;20566;-73
2022/02/24 01:41:33;;;;;;;18.00;6.97;;;3.20;99.90;;;;;;5057459;28;20244;-72
2022/02/24 01:44:09;;;;;;;18.03;7.13;;;3.20;99.90;;;;;;5057173;28;20218;-72
2022/02/24 01:46:36;;;;;;;20.30;7.23;;;3.20;99.90;;;;;;5064816;28;20217;-72
2022/02/24 01:49:05;;;;;;;15.30;6.70;;;3.20;99.90;;;;;;5050659;28;20206;-73
2022/02/24 01:51:32;;;;;;;15.20;6.53;;;3.20;99.90;;;;;;5051420;28;20598;-72
2022/02/24 01:53:59;;;;;;;18.27;8.03;;;3.20;99.90;;;;;;5054930;28;20208;-72
2022/02/24 01:56:26;;;;;;;18.33;6.67;;;3.10;99.90;;;;;;5048549;28;20616;-71
2022/02/24 01:58:54;;;;;;;20.00;7.30;;;3.10;99.90;;;;;;5049908;28;20610;-73
2022/02/24 02:01:21;;;;;;;15.47;6.10;;;3.10;99.90;;;;;;5053699;28;20228;-73
2022/02/24 02:03:49;;;;;;;16.73;6.80;;;3.00;99.90;;;;;;5054083;28;20221;-73
2022/02/24 02:06:17;;;;;;;18.80;7.63;;;3.10;99.90;;;;;;5050377;28;20626;-73
2022/02/24 02:08:44;;;;;;;17.50;6.97;;;3.00;99.90;;;;;;5043943;28;20218;-73
2022/02/24 02:11:12;;;;;;;19.80;6.93;;;3.00;99.90;;;;;;5053438;28;20289;-73
2022/02/24 02:13:39;;;;;;;20.13;7.13;;;3.00;99.90;;;;;;5053051;28;20208;-73
2022/02/24 02:16:07;;;;;;;23.00;7.40;;;3.00;99.90;;;;;;5054048;28;20629;-74
2022/02/24 02:18:34;;;;;;;14.30;6.90;;;3.00;99.90;;;;;;5052007;28;20241;-73
2022/02/24 02:21:02;;;;;;;17.27;7.63;;;3.10;99.90;;;;;;5050025;28;20648;-73
2022/02/24 02:23:29;;;;;;;16.33;7.30;;;3.10;99.90;;;;;;5052513;28;20213;-72
2022/02/24 02:25:56;;;;;;;20.00;7.97;;;3.00;99.90;;;;;;5053381;28;20690;-65
2022/02/24 02:28:23;;;;;;;17.90;7.07;;;3.10;99.90;;;;;;5043767;28;20289;-72
2022/02/24 02:30:50;;;;;;;20.23;8.07;;;3.00;99.90;;;;;;5053591;28;20705;-73
2022/02/24 02:33:16;;;;;;;18.40;7.80;;;3.00;99.90;;;;;;5071245;28;20292;-73
2022/02/24 02:35:43;;;;;;;15.30;7.40;;;3.00;99.90;;;;;;5053918;28;20220;-73
2022/02/24 02:38:12;;;;;;;19.17;7.83;;;3.00;99.90;;;;;;5052367;28;20202;-73
2022/02/24 02:40:39;;;;;;;15.63;7.40;;;3.00;99.90;;;;;;5055514;28;20240;-74
2022/02/24 02:43:06;;;;;;;21.10;7.13;;;3.00;99.90;;;;;;5051430;28;20235;-74
2022/02/24 02:45:33;;;;;;;20.90;8.47;;;3.00;99.90;;;;;;5049242;28;20210;-74
2022/02/24 02:48:01;;;;;;;20.10;7.03;;;3.00;99.90;;;;;;5040732;28;20248;-74
2022/02/24 02:50:28;;;;;;;18.23;8.00;;;3.00;99.90;;;;;;5053072;28;20206;-74
2022/02/24 02:52:55;;;;;;;19.67;8.37;;;3.10;99.90;;;;;;5051911;28;20211;-74
2022/02/24 02:55:23;;;;;;;15.60;7.60;;;3.10;99.90;;;;;;5051191;28;20681;-74
2022/02/24 02:57:50;;;;;;;21.33;7.97;;;3.00;99.90;;;;;;5047493;28;20256;-73
2022/02/24 03:00:18;;;;;;;16.67;7.57;;;3.00;99.90;;;;;;5052861;28;20252;-74
2022/02/24 03:02:45;;;;;;;19.43;8.43;;;3.00;99.90;;;;;;5052558;28;20250;-74
2022/02/24 03:05:12;;;;;;;21.17;7.90;;;3.10;99.90;;;;;;5049915;28;20209;-74
2022/02/24 03:07:39;;;;;;;16.47;7.63;;;3.00;99.90;;;;;;5051577;28;20242;-73
2022/02/24 03:10:07;;;;;;;22.97;8.47;;;3.10;99.90;;;;;;5051648;28;20241;-73
2022/02/24 03:12:36;;;;;;;17.87;8.23;;;3.00;99.90;;;;;;5051929;28;20209;-72
2022/02/24 03:15:04;;;;;;;22.20;8.73;;;3.00;99.90;;;;;;5042709;28;20245;-72
2022/02/24 03:17:30;;;;;;;20.07;7.73;;;3.00;99.90;;;;;;5051880;28;20245;-74
2022/02/24 03:19:57;;;;;;;17.23;7.43;;;3.00;99.90;;;;;;5052206;28;20682;-72
2022/02/24 03:22:24;;;;;;;20.20;7.73;;;3.00;99.90;;;;;;5051781;28;20260;-74
2022/02/24 03:24:51;;;;;;;20.73;8.43;;;3.10;99.90;;;;;;5050202;28;20297;-73
2022/02/24 03:27:18;;;;;;;19.73;7.83;;;3.10;99.90;;;;;;5046235;28;20206;-73
2022/02/24 03:29:46;;;;;;;20.87;7.97;;;3.10;99.90;;;;;;5058144;28;20588;-73
2022/02/24 03:32:13;;;;;;;23.10;8.80;;;3.10;99.90;;;;;;5067023;28;20292;-74
2022/02/24 03:34:41;;;;;;;17.33;7.40;;;3.00;99.90;;;;;;5062303;28;20293;-74
2022/02/24 03:37:08;;;;;;;18.10;7.70;;;3.10;99.90;;;;;;5048545;28;20674;-75
2022/02/24 03:39:35;;;;;;;17.30;7.87;;;3.00;99.90;;;;;;5051580;28;20202;-74
2022/02/24 03:42:02;;;;;;;18.90;7.73;;;3.10;99.90;;;;;;5062712;28;20620;-74
2022/02/24 03:44:29;;;;;;;17.37;7.70;;;3.00;99.90;;;;;;5050830;28;20776;-72
2022/02/24 03:46:57;;;;;;;16.07;7.67;;;3.10;99.90;;;;;;5051487;28;20206;-72
2022/02/24 03:49:24;;;;;;;13.33;6.10;;;3.10;99.90;;;;;;5055360;28;20294;-73
2022/02/24 03:51:51;;;;;;;19.77;7.73;;;3.00;99.90;;;;;;5056253;28;20289;-74
2022/02/24 03:54:18;;;;;;;16.10;7.00;;;3.00;99.90;;;;;;5056008;28;20206;-73
2022/02/24 03:56:45;;;;;;;15.90;6.67;;;3.10;99.90;;;;;;5055493;28;20618;-73
2022/02/24 03:59:12;;;;;;;16.10;6.80;;;3.00;99.90;;;;;;5054312;28;20216;-74
2022/02/24 04:01:39;;;;;;;17.77;6.63;;;3.10;99.90;;;;;;5055900;28;20237;-73
2022/02/24 04:04:07;;;;;;;18.53;6.60;;;3.10;99.90;;;;;;5054371;28;20313;-73
2022/02/24 04:06:34;;;;;;;19.30;7.60;;;3.10;99.90;;;;;;5045040;28;20234;-73
2022/02/24 04:09:01;;;;;;;14.80;6.93;;;3.10;99.90;;;;;;5055998;28;20272;-74
2022/02/24 04:11:28;;;;;;;15.93;6.30;;;3.10;99.90;;;;;;5055213;28;20714;-73
2022/02/24 04:13:55;;;;;;;14.13;6.90;;;3.10;99.90;;;;;;5051909;28;20201;-73
2022/02/24 04:16:22;;;;;;;19.70;6.60;;;3.10;99.90;;;;;;5054232;28;20260;-73
2022/02/24 04:18:49;;;;;;;15.13;6.10;;;3.10;99.90;;;;;;5055177;28;20275;-73
2022/02/24 04:21:17;;;;;;;14.80;5.77;;;3.10;99.90;;;;;;5055132;28;20222;-73
2022/02/24 04:23:44;;;;;;;15.97;7.00;;;3.10;99.90;;;;;;5051450;28;20298;-73
2022/02/24 04:26:11;;;;;;;15.37;6.00;;;3.10;99.90;;;;;;5055398;28;20753;-73
2022/02/24 04:28:38;;;;;;;20.33;6.07;;;3.10;99.90;;;;;;5052632;28;20301;-74
2022/02/24 04:31:05;;;;;;;21.20;6.40;;;3.10;99.90;;;;;;5061882;28;20214;-72
2022/02/24 04:33:32;;;;;;;15.23;6.97;;;3.10;99.90;;;;;;5062646;28;20290;-73
2022/02/24 04:35:59;;;;;;;13.03;5.67;;;3.00;99.90;;;;;;5055277;28;20301;-73
2022/02/24 04:38:27;;;;;;;13.57;5.80;;;3.10;99.90;;;;;;5051761;28;20234;-73
2022/02/24 04:40:55;;;;;;;17.80;6.30;;;3.10;99.90;;;;;;5059210;28;20229;-73
2022/02/24 04:43:22;;;;;;;15.67;5.87;;;3.10;99.90;;;;;;5055116;28;20229;-73
2022/02/24 04:45:50;;;;;;;19.37;6.33;;;3.10;99.90;;;;;;5053558;28;20305;-72
2022/02/24 04:48:18;;;;;;;19.20;6.60;;;3.10;99.90;;;;;;5055292;28;20210;-73
2022/02/24 04:50:45;;;;;;;14.53;5.47;;;3.00;99.90;;;;;;5054212;28;20209;-73
2022/02/24 04:53:12;;;;;;;15.73;5.13;;;3.00;99.90;;;;;;5052680;28;20683;-73
2022/02/24 04:55:42;;;;;;;14.40;5.60;;;3.00;99.90;;;;;;5060038;28;20568;-73
2022/02/24 04:58:09;;;;;;;21.17;5.83;;;3.00;99.90;;;;;;5054479;28;20292;-73
2022/02/24 05:00:37;;;;;;;15.20;5.03;;;3.00;99.90;;;;;;5053480;28;20671;-74
2022/02/24 05:03:03;;;;;;;14.37;4.93;;;3.00;99.90;;;;;;5053207;28;20224;-74
2022/02/24 05:05:30;;;;;;;12.90;6.13;;;3.00;99.90;;;;;;5051537;28;20209;-74
2022/02/24 05:07:59;;;;;;;17.07;5.67;;;3.00;99.90;;;;;;5054264;28;20762;-75
2022/02/24 05:10:26;;;;;;;12.23;4.93;;;3.10;99.90;;;;;;5053766;28;20210;-74
2022/02/24 05:12:55;;;;;;;11.90;4.73;;;3.00;99.90;;;;;;5044009;28;20293;-72
2022/02/24 05:15:22;;;;;;;13.90;4.90;;;3.00;99.90;;;;;;5045192;28;20549;-72
2022/02/24 05:17:49;;;;;;;14.17;4.57;;;3.00;99.90;;;;;;5052259;28;20214;-72
2022/02/24 05:20:17;;;;;;;11.23;4.57;;;3.10;99.90;;;;;;5054065;28;20552;-72
2022/02/24 05:22:44;;;;;;;10.03;4.73;;;3.10;99.90;;;;;;5048068;28;20246;-66
2022/02/24 05:25:12;;;;;;;14.07;4.23;;;3.10;99.90;;;;;;5052478;28;20217;-67
2022/02/24 05:27:42;;;;;;;17.97;5.57;;;3.10;99.90;;;;;;5052382;28;20574;-67
2022/02/24 05:30:12;;;;;;;8.17;4.13;;;3.20;99.90;;;;;;5059910;28;20217;-67
2022/02/24 05:32:38;;;;;;;11.67;4.93;;;3.20;99.90;;;;;;5063911;28;20280;-66
2022/02/24 05:35:06;;;;;;;15.27;4.77;;;3.20;99.90;;;;;;5057106;28;20681;-67
2022/02/24 05:37:34;;;;;;;11.03;4.53;;;3.20;99.90;;;;;;5052161;28;20261;-66
2022/02/24 05:40:02;;;;;;;14.47;4.93;;;3.20;99.90;;;;;;5052883;28;20288;-68
2022/02/24 05:42:29;;;;;;;14.87;4.20;;;3.20;99.90;;;;;;5053963;28;20218;-66
2022/02/24 05:44:56;;;;;;;16.00;4.70;;;3.20;99.90;;;;;;5051450;28;20729;-67
2022/02/24 05:47:24;;;;;;;16.27;4.47;;;3.20;99.90;;;;;;5051218;28;20205;-75
2022/02/24 05:49:51;;;;;;;15.00;5.07;;;3.30;99.90;;;;;;5059972;28;20240;-76
2022/02/24 05:52:18;;;;;;;15.93;5.97;;;3.30;99.90;;;;;;5060086;28;20216;-69
2022/02/24 05:54:46;;;;;;;12.73;5.17;;;3.30;99.90;;;;;;5065385;28;20201;-75
2022/02/24 05:57:13;;;;;;;17.20;7.75;;;3.40;99.90;;;;;;5052553;28;20588;-69
2022/02/24 05:59:40;;;;;;;16.07;6.97;;;3.40;99.90;;;;;;5063789;28;20202;-70
2022/02/24 06:02:07;;;;;;;17.07;7.07;;;3.40;99.90;;;;;;5049134;28;20395;-69
2022/02/24 06:04:35;;;;;;;19.57;7.57;;;3.40;99.90;;;;;;5058146;28;20228;-69
2022/02/24 06:07:02;;;;;;;13.93;6.40;;;3.40;99.90;;;;;;5050213;28;20321;-70
2022/02/24 06:09:29;;;;;;;17.35;8.68;;;3.50;99.90;;;;;;5051565;28;20531;-71
2022/02/24 06:11:55;;;;;;;17.40;8.83;;;3.50;99.90;;;;;;5058400;28;20440;-68
2022/02/24 06:14:22;;;;;;;19.45;7.75;;;3.50;99.90;;;;;;5053558;28;20505;-69
2022/02/24 06:16:49;;;;;;;16.53;7.50;;;3.50;99.90;;;;;;5057369;28;20224;-70
2022/02/24 06:19:16;;;;;;;15.33;6.50;;;3.60;99.90;;;;;;5063863;28;20224;-69
2022/02/24 06:21:44;;;;;;;20.13;8.00;;;3.60;99.90;;;;;;5048180;28;20221;-70
2022/02/24 06:24:11;;;;;;;19.80;8.90;;;3.70;99.90;;;;;;5052690;28;20487;-70
2022/02/24 06:26:38;;;;;;;17.20;7.50;;;3.80;99.90;;;;;;5051616;28;20209;-70
2022/02/24 06:29:05;;;;;;;15.80;7.00;;;3.80;99.90;;;;;;5061341;28;20292;-70
2022/02/24 06:31:34;;;;;;;16.80;6.20;;;3.80;99.90;;;;;;5046416;28;20206;-69
2022/02/24 06:34:01;;;;;;;22.43;7.37;;;3.80;99.90;;;;;;5054066;28;20206;-69
2022/02/24 06:36:28;;;;;;;18.57;7.67;;;3.90;99.90;;;;;;5053332;28;20594;-70
2022/02/24 06:38:57;;;;;;;16.17;6.53;;;3.90;99.90;;;;;;5050648;28;20234;-70
2022/02/24 06:41:24;;;;;;;17.17;7.87;;;3.90;99.90;;;;;;5053615;28;20737;-69
2022/02/24 06:43:52;;;;;;;16.17;7.40;;;4.00;99.90;;;;;;5039623;28;20223;-69
2022/02/24 06:46:19;;;;;;;13.37;6.93;;;4.00;99.90;;;;;;5050203;28;20300;-69
2022/02/24 06:48:46;;;;;;;16.70;7.33;;;4.00;99.90;;;;;;5048320;28;20202;-69
2022/02/24 06:51:13;;;;;;;16.83;7.47;;;4.00;99.90;;;;;;5067729;28;20236;-73
2022/02/24 06:53:41;;;;;;;16.93;8.10;;;4.10;99.90;;;;;;5059762;28;20280;-75
2022/02/24 06:56:09;;;;;;;21.27;8.33;;;4.10;99.90;;;;;;5052513;28;20597;-69
2022/02/24 06:58:36;;;;;;;18.33;8.03;;;4.20;99.90;;;;;;5058320;28;20202;-70
2022/02/24 07:01:03;;;;;;;16.17;8.03;;;4.20;99.90;;;;;;5056613;28;20235;-74
2022/02/24 07:03:30;;;;;;;15.70;7.83;;;4.30;99.90;;;;;;5058034;28;20252;-69
2022/02/24 07:05:57;;;;;;;17.87;8.67;;;4.40;99.90;;;;;;5053499;28;20213;-69
2022/02/24 07:08:24;;;;;;;20.00;8.53;;;4.50;99.90;;;;;;5054923;28;20206;-71
2022/02/24 07:10:51;;;;;;;15.37;8.30;;;4.60;99.90;;;;;;5059591;28;20647;-74
2022/02/24 07:13:19;;;;;;;16.10;7.70;;;4.70;99.90;;;;;;5060034;28;20289;-72
2022/02/24 07:15:47;;;;;;;16.10;7.83;;;4.80;99.90;;;;;;5059491;28;20258;-75
2022/02/24 07:18:13;;;;;;;17.50;8.30;;;4.90;99.90;;;;;;5052224;28;20243;-72
2022/02/24 07:20:42;;;;;;;16.00;7.50;;;4.90;99.90;;;;;;5044148;28;20313;-74
2022/02/24 07:23:10;;;;;;;17.50;8.03;;;5.10;99.90;;;;;;5052323;28;20232;-76
2022/02/24 07:25:38;;;;;;;16.93;7.30;;;5.40;99.90;;;;;;5059265;28;20235;-77
2022/02/24 07:28:07;;;;;;;15.57;8.03;;;6.00;99.90;;;;;;5058849;28;20218;-74
2022/02/24 07:30:36;;;;;;;15.70;7.27;;;6.30;99.90;;;;;;5058904;28;20252;-77
2022/02/24 07:33:03;;;;;;;19.97;7.87;;;6.40;99.90;;;;;;5058337;28;20634;-72
2022/02/24 07:35:30;;;;;;;19.67;7.97;;;6.30;99.90;;;;;;5057088;28;20202;-72
2022/02/24 07:37:57;;;;;;;24.90;9.17;;;6.30;99.90;;;;;;5056894;28;20573;-72
2022/02/24 07:40:24;;;;;;;19.77;7.80;;;6.30;99.90;;;;;;5052761;28;20320;-73
2022/02/24 07:42:51;;;;;;;16.10;7.33;;;6.40;99.90;;;;;;5042096;28;20222;-72
2022/02/24 07:45:18;;;;;;;20.30;8.40;;;6.40;99.90;;;;;;5058137;28;20614;-68
2022/02/24 07:47:47;;;;;;;17.00;8.13;;;6.60;99.90;;;;;;5055180;28;20210;-70
2022/02/24 07:50:14;;;;;;;21.67;7.90;;;6.80;99.90;;;;;;5056006;28;20210;-71
2022/02/24 07:52:42;;;;;;;18.33;7.73;;;6.90;99.90;;;;;;5055688;28;20210;-72
2022/02/24 07:55:09;;;;;;;20.30;8.13;;;7.00;99.90;;;;;;5066344;28;20225;-74
2022/02/24 07:57:38;;;;;;;19.43;8.00;;;7.10;99.90;;;;;;5073129;28;20632;-73
2022/02/24 08:00:06;;;;;;;21.40;7.70;;;7.20;99.90;;;;;;5048769;28;20222;-68
2022/02/24 08:02:33;;;;;;;15.13;7.30;;;7.30;99.90;;;;;;5055979;28;20218;-71
2022/02/24 08:05:02;;;;;;;21.23;8.17;;;7.40;99.90;;;;;;5070211;28;20209;-73
2022/02/24 08:07:29;;;;;;;20.50;7.47;;;7.40;99.90;;;;;;5068092;28;20268;-78
2022/02/24 08:09:57;;;;;;;16.73;7.70;;;7.40;99.90;;;;;;5055961;28;20217;-76
2022/02/24 08:15:17;;;;;;;17.03;7.03;;;7.50;99.90;;;;;;5059883;28;20208;-75
2022/02/24 08:17:44;;;;;;;13.80;6.60;;;7.50;99.90;;;;;;5054061;28;20664;-73
2022/02/24 08:20:13;;;;;;;15.83;6.83;;;7.50;99.90;;;;;;5068540;28;20202;-71
2022/02/24 08:22:42;;;;;;;16.03;7.33;;;7.60;99.90;;;;;;5050837;28;20292;-71
2022/02/24 08:25:12;;;;;;;20.97;7.13;;;7.50;99.90;;;;;;5052436;28;20648;-71
2022/02/24 08:27:40;;;;;;;13.67;7.00;;;7.60;99.90;;;;;;5055185;28;20214;-72
2022/02/24 08:30:09;;;;;;;15.27;7.07;;;7.80;99.90;;;;;;5055120;28;20475;-74
2022/02/24 08:32:37;;;;;;;15.68;6.82;;;7.90;99.90;;;;;;5050602;28;20442;-74
2022/02/24 08:35:04;;;;;;;20.70;8.43;;;8.00;99.90;;;;;;5056514;28;20466;-75
2022/02/24 08:37:33;;;;;;;16.42;7.78;;;8.00;99.90;;;;;;5059151;28;20442;-72
2022/02/24 08:40:01;;;;;;;17.07;6.87;;;8.10;99.90;;;;;;5053377;28;20354;-73
2022/02/24 08:42:28;;;;;;;16.27;6.00;;;8.20;99.90;;;;;;5069447;28;20198;-76
2022/02/24 08:44:59;;;;;;;14.93;7.45;;;8.30;99.90;;;;;;5060631;28;20460;-77
2022/02/24 08:47:27;;;;;;;15.38;7.90;;;8.40;99.90;;;;;;5054307;28;20467;-72
2022/02/24 08:49:54;;;;;;;17.30;6.03;;;8.50;99.90;;;;;;5056134;28;20673;-72
2022/02/24 08:52:21;;;;;;;15.53;6.73;;;8.60;99.90;;;;;;5056584;28;20596;-70
2022/02/24 08:54:49;;;;;;;17.52;6.70;;;8.80;99.90;;;;;;5057904;28;20462;-73
2022/02/24 08:57:17;;;;;;;15.00;6.40;;;9.00;99.90;;;;;;5063980;28;20297;-74
2022/02/24 08:59:44;;;;;;;13.17;6.33;;;9.20;99.90;;;;;;5054868;28;20693;-74
2022/02/24 09:02:11;;;;;;;14.07;5.90;;;9.50;99.90;;;;;;5059214;28;20223;-76
2022/02/24 09:04:38;;;;;;;14.13;5.13;;;9.70;99.90;;;;;;5058579;28;20296;-75
2022/02/24 09:07:05;;;;;;;13.60;5.70;;;9.80;99.90;;;;;;5062500;28;20262;-71
2022/02/24 09:09:32;;;;;;;10.83;5.67;;;10.00;99.60;;;;;;5060715;28;20265;-74
2022/02/24 09:12:01;;;;;;;14.00;5.83;;;10.00;99.90;;;;;;5059200;28;20245;-74
2022/02/24 09:14:29;;;;;;;14.63;5.60;;;10.30;99.90;;;;;;5056401;28;20198;-73
2022/02/24 09:16:56;;;;;;;16.05;5.68;;;10.80;99.90;;;;;;5057272;28;20443;-75
2022/02/24 09:19:23;;;;;;;10.90;5.00;;;12.70;99.90;;;;;;5055484;28;20690;-73
2022/02/24 09:21:50;;;;;;;11.43;5.10;;;15.50;93.00;;;;;;5060983;28;20236;-71
2022/02/24 09:24:17;;;;;;;12.63;4.40;;;18.80;77.10;;;;;;5055452;28;20256;-73
2022/02/24 09:26:44;;;;;;;11.95;5.35;;;21.70;57.10;;;;;;5055435;28;20202;-72
2022/02/24 09:29:14;;;;;;;11.93;4.47;;;23.80;50.50;;;;;;5051640;28;20214;-73
2022/02/24 09:31:42;;;;;;;12.38;5.97;;;25.70;44.90;;;;;;5060438;28;20470;-72
2022/02/24 09:34:10;;;;;;;11.68;5.15;;;26.70;41.20;;;;;;5061197;28;20201;-73
2022/02/24 09:36:37;;;;;;;12.65;4.93;;;27.80;39.40;;;;;;5063247;28;20202;-74
2022/02/24 09:39:04;;;;;;;11.07;4.38;;;29.10;38.00;;;;;;5054809;28;20209;-71
2022/02/24 09:41:31;;;;;;;10.57;5.05;;;30.50;36.30;;;;;;5058217;28;20299;-72
2022/02/24 09:43:58;;;;;;;8.05;4.68;;;31.60;33.90;;;;;;5058952;28;20504;-73
2022/02/24 09:46:29;;;;;;;9.73;5.03;;;32.30;31.70;;;;;;5054281;28;20210;-72
2022/02/24 09:48:57;;;;;;;11.32;4.72;;;32.60;30.80;;;;;;5057422;28;20296;-70
2022/02/24 09:51:26;;;;;;;14.70;4.93;;;33.40;30.40;;;;;;5055191;28;20236;-72
2022/02/24 09:53:53;;;;;;;8.88;4.78;;;34.30;29.60;;;;;;5043544;28;20201;-73
2022/02/24 09:56:21;;;;;;;8.57;3.92;;;35.00;28.70;;;;;;5053330;28;20617;-75
2022/02/24 09:58:49;;;;;;;8.75;4.78;;;35.50;28.00;;;;;;5058236;28;20205;-72
2022/02/24 10:01:17;;;;;;;9.88;4.30;;;35.80;27.70;;;;;;5059526;28;20213;-71
2022/02/24 10:03:48;;;;;;;7.75;3.72;;;36.60;27.00;;;;;;5053124;28;20683;-68
2022/02/24 10:06:17;;;;;;;6.22;3.58;;;36.50;26.30;;;;;;5052744;28;20245;-71
2022/02/24 10:08:46;;;;;;;8.27;3.63;;;36.50;26.10;;;;;;5052512;28;20657;-72
2022/02/24 10:11:18;;;;;;;11.13;3.50;;;36.20;26.00;;;;;;5054236;28;20213;-72
2022/02/24 10:13:59;;;;;;;7.75;3.90;;;36.60;25.70;;;;;;5060704;28;20585;-73
2022/02/24 10:16:26;;;;;;;8.60;3.88;;;37.10;25.60;;;;;;5041835;28;20228;-74
2022/02/24 10:18:55;;;;;;;7.63;3.92;;;37.60;24.70;;;;;;5056891;28;20213;-70
2022/02/24 10:21:23;;;;;;;9.43;3.85;;;37.80;25.10;;;;;;5058298;28;20229;-70
2022/02/24 10:23:51;;;;;;;7.93;3.65;;;37.70;24.80;;;;;;5051930;28;20260;-73
2022/02/24 10:26:19;;;;;;;10.57;4.15;;;37.90;24.60;;;;;;5054566;28;20675;-71
2022/02/24 10:28:49;;;;;;;7.85;3.83;;;38.00;24.40;;;;;;5054809;28;20214;-73
2022/02/24 10:31:18;;;;;;;8.90;4.20;;;38.50;24.20;;;;;;5050664;28;20577;-72
2022/02/24 10:33:46;;;;;;;6.03;3.63;;;38.50;23.80;;;;;;5052938;28;20297;-71
2022/02/24 10:36:21;;;;;;;9.95;4.13;;;37.30;23.70;;;;;;5053479;28;20234;-73
2022/02/24 10:39:00;;;;;;;9.52;4.25;;;36.00;24.80;;;;;;5050398;28;20729;-73
2022/02/24 10:41:28;;;;;;;9.07;4.15;;;35.50;25.00;;;;;;5052369;28;20324;-71
2022/02/24 10:44:21;;;;;;;11.38;4.55;;;35.00;25.30;;;;;;5056436;28;20249;-72
2022/02/24 10:46:49;;;;;;;7.85;4.15;;;34.80;25.20;;;;;;5048661;28;20210;-77
2022/02/24 10:49:30;;;;;;;7.82;4.13;;;35.90;25.20;;;;;;5056411;28;20206;-72
2022/02/24 10:52:20;;;;;;;9.30;4.20;;;37.10;25.00;;;;;;5047614;28;20249;-73
2022/02/24 10:54:58;;;;;;;8.35;4.07;;;37.90;23.80;;;;;;5048128;28;20667;-72
2022/02/24 10:57:27;;;;;;;8.07;3.80;;;38.20;23.40;;;;;;5051613;28;20294;-72
2022/02/24 10:59:55;;;;;;;9.10;4.18;;;38.90;23.30;;;;;;5056489;28;21158;-73
2022/02/24 11:02:23;;;;;;;7.53;3.45;;;39.80;23.20;;;;;;5052688;28;20639;-74
2022/02/24 11:04:51;;;;;;;10.00;3.70;;;40.60;22.60;;;;;;5054457;28;20260;-72
2022/02/24 11:07:19;;;;;;;10.80;3.70;;;40.80;22.20;;;;;;5048959;28;20666;-75
2022/02/24 11:09:48;;;;;;;10.60;3.55;;;41.20;22.20;;;;;;5055495;28;20634;-72
2022/02/24 11:12:16;;;;;;;9.32;3.92;;;41.80;21.80;;;;;;5056129;28;20718;-73
2022/02/24 11:14:46;;;;;;;9.40;4.72;;;42.20;21.70;;;;;;5050854;28;20609;-74
2022/02/24 11:17:14;;;;;;;12.73;3.63;;;42.70;21.40;;;;;;5049692;28;20218;-75
2022/02/24 11:19:43;;;;;;;6.60;3.47;;;42.70;21.20;;;;;;5043515;28;20214;-75
2022/02/24 11:22:11;;;;;;;6.90;3.42;;;42.70;21.00;;;;;;5050417;28;20276;-76
2022/02/24 11:24:40;;;;;;;8.38;3.58;;;43.10;21.00;;;;;;5055040;28;20222;-73
2022/02/24 11:27:13;;;;;;;9.93;4.03;;;43.10;20.80;;;;;;5047639;28;20577;-71
2022/02/24 11:29:49;;;;;;;7.93;3.60;;;43.10;20.80;;;;;;5044672;28;20230;-71
2022/02/24 11:32:20;;;;;;;7.72;4.00;;;43.60;20.60;;;;;;5054213;28;20206;-71
2022/02/24 11:35:06;;;;;;;8.93;4.13;;;43.60;20.40;;;;;;5047106;28;20233;-71
2022/02/24 11:37:35;;;;;;;8.60;3.50;;;43.40;20.30;;;;;;5062842;28;20201;-72
2022/02/24 11:40:06;;;;;;;7.20;4.00;;;43.30;20.10;;;;;;5037857;28;20266;-72
2022/02/24 11:42:35;;;;;;;10.30;4.00;;;43.30;20.20;;;;;;5048488;28;20201;-71
2022/02/24 11:45:23;;;;;;;6.07;3.83;;;43.20;20.40;;;;;;5062444;28;20321;-71
2022/02/24 11:47:57;;;;;;;10.40;3.90;;;43.10;20.20;;;;;;5051835;28;20967;-70
2022/02/24 11:50:33;;;;;;;7.68;3.55;;;42.90;20.20;;;;;;5052394;28;20241;-72
2022/02/24 11:53:00;;;;;;;11.82;4.28;;;42.40;20.10;;;;;;5053126;28;20201;-71
2022/02/24 11:55:53;;;;;;;6.88;3.47;;;42.30;20.90;;;;;;5042662;28;20241;-71
2022/02/24 11:58:54;;;;;;;6.07;3.08;;;42.80;20.20;;;;;;5065535;28;20206;-72
2022/02/24 12:01:34;;;;;;;6.95;3.30;;;43.40;19.50;;;;;;5054590;28;20244;-71
2022/02/24 12:04:15;;;;;;;6.78;3.45;;;43.90;19.90;;;;;;5048257;28;20218;-71
2022/02/24 12:06:46;;;;;;;7.72;3.45;;;44.00;19.20;;;;;;5062185;28;20201;-71
2022/02/24 12:09:28;;;;;;;7.65;3.25;;;43.70;19.70;;;;;;5052201;28;20228;-71
2022/02/24 12:11:59;;;;;;;3.88;2.58;;;43.20;19.30;;;;;;5057096;28;20293;-71
2022/02/24 12:14:45;;;;;;;6.60;3.05;;;42.70;19.50;;;;;;5054253;28;20206;-71
2022/02/24 12:17:14;;;;;;;7.90;3.75;;;42.50;20.00;;;;;;5054596;28;20613;-71
2022/02/24 12:19:47;;;;;;;7.22;3.70;;;41.90;19.70;;;;;;5056771;28;20210;-70
2022/02/24 12:22:19;;;;;;;10.13;3.42;;;41.70;19.80;;;;;;5046429;28;20268;-70
2022/02/24 12:24:48;;;;;;;11.27;4.05;;;42.10;20.00;;;;;;5052714;28;20233;-72
2022/02/24 12:27:34;;;;;;;6.53;3.47;;;42.60;19.80;;;;;;5054367;28;20220;-71
2022/02/24 12:30:05;;;;;;;6.82;3.42;;;43.20;19.50;;;;;;5063792;28;20285;-72
2022/02/24 12:32:44;;;;;;;6.22;2.80;;;43.70;19.20;;;;;;5050266;28;20211;-71
2022/02/24 12:35:13;;;;;;;6.80;3.00;;;43.50;18.90;;;;;;5052737;28;20737;-71
2022/02/24 12:37:41;;;;;;;7.72;3.30;;;42.30;19.30;;;;;;5059205;28;20209;-71
2022/02/24 12:40:09;;;;;;;6.10;3.03;;;41.90;19.60;;;;;;5072710;28;20197;-71
2022/02/24 12:42:37;;;;;;;6.15;3.15;;;42.10;19.70;;;;;;5068544;28;20197;-71
2022/02/24 12:45:06;;;;;;;7.03;3.10;;;42.00;19.40;;;;;;5056755;28;20226;-71
2022/02/24 12:47:33;;;;;;;7.90;3.45;;;41.60;20.20;;;;;;5054754;28;20205;-70
2022/02/24 12:50:00;;;;;;;8.50;3.22;;;41.20;19.70;;;;;;5060659;28;20300;-71
2022/02/24 12:52:29;;;;;;;7.25;2.95;;;40.90;19.70;;;;;;5047707;28;20205;-71
2022/02/24 12:54:57;;;;;;;7.90;3.47;;;40.60;20.10;;;;;;5058150;28;20694;-70